sensor_id;sensor_type;location;lat;lon;timestamp;pressure;altitude;pressure_sealevel;temperature;humidity
59106;BME280;44891;50.204;8.132;2023-04-08T00:03:04;98646.66;;;7.48;100.00
59106;BME280;44891;50.204;8.132;2023-04-08T00:07:06;98650.31;;;7.41;100.00
59106;BME280;44891;50.204;8.132;2023-04-08T00:11:07;98645.44;;;7.44;100.00
59106;BME280;44891;50.204;8.132;2023-04-08T00:15:11;98648.47;;;7.48;100.00
59106;BME280;44891;50.204;8.132;2023-04-08T00:19:13;98648.03;;;7.51;100.00
59106;BME280;44891;50.204;8.132;2023-04-08T00:23:14;98650.28;;;7.47;100.00
59106;BME280;44891;50.204;8.132;2023-04-08T00:27:16;98650.28;;;7.47;100.00
59106;BME280;44891;50.204;8.132;2023-04-08T00:31:19;98651.09;;;7.48;100.00
59106;BME280;44891;50.204;8.132;2023-04-08T00:35:21;98663.72;;;7.51;100.00
59106;BME280;44891;50.204;8.132;2023-04-08T00:39:24;98649.47;;;7.47;100.00
59106;BME280;44891;50.204;8.132;2023-04-08T00:43:26;98659.72;;;7.48;100.00
59106;BME280;44891;50.204;8.132;2023-04-08T00:47:29;98659.75;;;7.42;100.00
59106;BME280;44891;50.204;8.132;2023-04-08T00:51:31;98663.16;;;7.42;100.00
59106;BME280;44891;50.204;8.132;2023-04-08T00:55:33;98650.34;;;7.34;100.00
59106;BME280;44891;50.204;8.132;2023-04-08T00:59:35;98661.16;;;7.38;100.00
59106;BME280;44891;50.204;8.132;2023-04-08T01:03:41;98657.53;;;7.39;100.00
59106;BME280;44891;50.204;8.132;2023-04-08T01:07:48;98661.78;;;7.40;100.00
59106;BME280;44891;50.204;8.132;2023-04-08T01:11:50;98665.19;;;7.40;100.00
59106;BME280;44891;50.204;8.132;2023-04-08T01:15:52;98667.19;;;7.38;100.00
59106;BME280;44891;50.204;8.132;2023-04-08T01:19:57;98665.38;;;7.39;100.00
59106;BME280;44891;50.204;8.132;2023-04-08T01:24:00;98663.38;;;7.41;100.00
59106;BME280;44891;50.204;8.132;2023-04-08T01:28:10;98664.53;;;7.45;100.00
59106;BME280;44891;50.204;8.132;2023-04-08T01:32:12;98669.97;;;7.43;100.00
59106;BME280;44891;50.204;8.132;2023-04-08T01:36:16;98665.97;;;7.41;100.00
59106;BME280;44891;50.204;8.132;2023-04-08T01:40:18;98664.94;;;7.48;100.00
59106;BME280;44891;50.204;8.132;2023-04-08T01:44:21;98658.53;;;7.44;100.00
59106;BME280;44891;50.204;8.132;2023-04-08T01:48:25;98658.53;;;7.44;100.00
59106;BME280;44891;50.204;8.132;2023-04-08T01:52:27;98655.09;;;7.44;100.00
59106;BME280;44891;50.204;8.132;2023-04-08T01:56:30;98661.13;;;7.44;100.00
59106;BME280;44891;50.204;8.132;2023-04-08T02:00:34;98660.28;;;7.57;100.00
59106;BME280;44891;50.204;8.132;2023-04-08T02:04:37;98669.91;;;7.63;100.00
59106;BME280;44891;50.204;8.132;2023-04-08T02:08:39;98662.66;;;7.65;100.00
59106;BME280;44891;50.204;8.132;2023-04-08T02:12:41;98663.94;;;7.49;100.00
59106;BME280;44891;50.204;8.132;2023-04-08T02:16:47;98656.53;;;7.46;100.00
59106;BME280;44891;50.204;8.132;2023-04-08T02:20:52;98656.72;;;7.38;100.00
59106;BME280;44891;50.204;8.132;2023-04-08T02:24:58;98664.16;;;7.48;100.00
59106;BME280;44891;50.204;8.132;2023-04-08T02:29:01;98662.91;;;7.50;100.00
59106;BME280;44891;50.204;8.132;2023-04-08T02:33:04;98664.53;;;7.45;100.00
59106;BME280;44891;50.204;8.132;2023-04-08T02:37:07;98672.81;;;7.42;100.00
59106;BME280;44891;50.204;8.132;2023-04-08T02:41:09;98662.75;;;7.39;100.00
59106;BME280;44891;50.204;8.132;2023-04-08T02:45:11;98662.59;;;7.33;100.00
59106;BME280;44891;50.204;8.132;2023-04-08T02:49:14;98669.84;;;7.25;100.00
59106;BME280;44891;50.204;8.132;2023-04-08T02:53:16;98678.47;;;7.25;100.00
59106;BME280;44891;50.204;8.132;2023-04-08T02:57:18;98683.88;;;7.30;100.00
59106;BME280;44891;50.204;8.132;2023-04-08T03:01:20;98686.28;;;7.39;100.00
59106;BME280;44891;50.204;8.132;2023-04-08T03:05:23;98685.69;;;7.30;100.00
59106;BME280;44891;50.204;8.132;2023-04-08T03:09:25;98682.53;;;7.21;100.00
59106;BME280;44891;50.204;8.132;2023-04-08T03:13:26;98692.97;;;7.21;100.00
59106;BME280;44891;50.204;8.132;2023-04-08T03:17:29;98690.16;;;7.09;100.00
59106;BME280;44891;50.204;8.132;2023-04-08T03:21:34;98690.38;;;7.08;100.00
59106;BME280;44891;50.204;8.132;2023-04-08T03:25:36;98694.19;;;7.05;100.00
59106;BME280;44891;50.204;8.132;2023-04-08T03:29:38;98694.38;;;7.04;100.00
59106;BME280;44891;50.204;8.132;2023-04-08T03:33:40;98700.63;;;7.03;100.00
59106;BME280;44891;50.204;8.132;2023-04-08T03:37:43;98705.84;;;7.03;100.00
59106;BME280;44891;50.204;8.132;2023-04-08T03:41:46;98711.28;;;7.01;100.00
59106;BME280;44891;50.204;8.132;2023-04-08T03:45:48;98712.28;;;6.94;100.00
59106;BME280;44891;50.204;8.132;2023-04-08T03:49:51;98709.84;;;6.99;100.00
59106;BME280;44891;50.204;8.132;2023-04-08T03:53:54;98715.72;;;6.94;100.00
59106;BME280;44891;50.204;8.132;2023-04-08T03:57:56;98716.50;;;6.88;100.00
59106;BME280;44891;50.204;8.132;2023-04-08T04:01:58;98714.50;;;6.97;100.00
59106;BME280;44891;50.204;8.132;2023-04-08T04:06:00;98714.06;;;6.87;100.00
59106;BME280;44891;50.204;8.132;2023-04-08T04:10:03;98714.69;;;6.89;100.00
59106;BME280;44891;50.204;8.132;2023-04-08T04:14:05;98715.72;;;6.94;100.00
59106;BME280;44891;50.204;8.132;2023-04-08T04:18:07;98719.91;;;6.82;100.00
59106;BME280;44891;50.204;8.132;2023-04-08T04:22:09;98722.13;;;6.72;100.00
59106;BME280;44891;50.204;8.132;2023-04-08T04:26:12;98714.06;;;6.67;100.00
59106;BME280;44891;50.204;8.132;2023-04-08T04:30:15;98716.50;;;6.68;100.00
59106;BME280;44891;50.204;8.132;2023-04-08T04:34:16;98716.09;;;6.65;100.00
59106;BME280;44891;50.204;8.132;2023-04-08T04:38:18;98733.56;;;6.64;100.00
59106;BME280;44891;50.204;8.132;2023-04-08T04:42:22;98730.34;;;6.62;100.00
59106;BME280;44891;50.204;8.132;2023-04-08T04:46:23;98732.97;;;6.69;100.00
59106;BME280;44891;50.204;8.132;2023-04-08T04:50:25;98734.34;;;6.51;100.00
59106;BME280;44891;50.204;8.132;2023-04-08T04:54:27;98733.97;;;6.48;100.00
59106;BME280;44891;50.204;8.132;2023-04-08T04:58:30;98736.75;;;6.46;100.00
59106;BME280;44891;50.204;8.132;2023-04-08T05:02:32;98736.56;;;6.41;100.00
59106;BME280;44891;50.204;8.132;2023-04-08T05:06:34;98738.38;;;6.41;100.00
59106;BME280;44891;50.204;8.132;2023-04-08T05:10:36;98739.19;;;6.48;100.00
59106;BME280;44891;50.204;8.132;2023-04-08T05:14:39;98740.34;;;6.45;100.00
59106;BME280;44891;50.204;8.132;2023-04-08T05:18:41;98742.19;;;6.51;100.00
59106;BME280;44891;50.204;8.132;2023-04-08T05:22:43;98749.97;;;6.38;100.00
59106;BME280;44891;50.204;8.132;2023-04-08T05:26:45;98749.41;;;6.43;100.00
59106;BME280;44891;50.204;8.132;2023-04-08T05:30:49;98758.41;;;6.40;100.00
59106;BME280;44891;50.204;8.132;2023-04-08T05:34:51;98754.59;;;6.36;100.00
59106;BME280;44891;50.204;8.132;2023-04-08T05:38:53;98754.19;;;6.39;100.00
59106;BME280;44891;50.204;8.132;2023-04-08T05:42:55;98761.41;;;6.37;100.00
59106;BME280;44891;50.204;8.132;2023-04-08T05:46:58;98759.22;;;6.41;100.00
59106;BME280;44891;50.204;8.132;2023-04-08T05:51:00;98761.22;;;6.39;100.00
59106;BME280;44891;50.204;8.132;2023-04-08T05:55:02;98767.06;;;6.47;100.00
59106;BME280;44891;50.204;8.132;2023-04-08T05:59:04;98768.69;;;6.55;100.00
59106;BME280;44891;50.204;8.132;2023-04-08T06:03:07;98770.09;;;6.64;100.00
59106;BME280;44891;50.204;8.132;2023-04-08T06:07:09;98778.16;;;6.69;100.00
59106;BME280;44891;50.204;8.132;2023-04-08T06:11:11;98780.75;;;6.69;100.00
59106;BME280;44891;50.204;8.132;2023-04-08T06:15:13;98785.38;;;6.74;100.00
59106;BME280;44891;50.204;8.132;2023-04-08T06:19:17;98781.56;;;6.83;100.00
59106;BME280;44891;50.204;8.132;2023-04-08T06:23:19;98781.38;;;6.85;100.00
59106;BME280;44891;50.204;8.132;2023-04-08T06:27:21;98787.00;;;6.88;100.00
59106;BME280;44891;50.204;8.132;2023-04-08T06:31:23;98793.81;;;6.82;100.00
59106;BME280;44891;50.204;8.132;2023-04-08T06:35:26;98796.22;;;6.77;100.00
59106;BME280;44891;50.204;8.132;2023-04-08T06:39:28;98796.22;;;6.71;100.00
59106;BME280;44891;50.204;8.132;2023-04-08T06:43:30;98806.06;;;6.75;100.00
59106;BME280;44891;50.204;8.132;2023-04-08T06:47:31;98804.25;;;6.69;100.00
59106;BME280;44891;50.204;8.132;2023-04-08T06:51:35;98808.22;;;6.52;100.00
59106;BME280;44891;50.204;8.132;2023-04-08T06:55:37;98800.41;;;6.59;100.00
59106;BME280;44891;50.204;8.132;2023-04-08T06:59:39;98810.47;;;6.62;100.00
59106;BME280;44891;50.204;8.132;2023-04-08T07:03:40;98809.06;;;6.79;100.00
59106;BME280;44891;50.204;8.132;2023-04-08T07:07:44;98808.69;;;6.82;100.00
59106;BME280;44891;50.204;8.132;2023-04-08T07:11:45;98812.91;;;6.90;100.00
59106;BME280;44891;50.204;8.132;2023-04-08T07:15:47;98816.13;;;6.98;100.00
59106;BME280;44891;50.204;8.132;2023-04-08T07:19:49;98828.00;;;7.14;100.00
59106;BME280;44891;50.204;8.132;2023-04-08T07:23:52;98827.19;;;7.20;100.00
59106;BME280;44891;50.204;8.132;2023-04-08T07:27:54;98833.59;;;7.38;100.00
59106;BME280;44891;50.204;8.132;2023-04-08T07:31:56;98839.25;;;7.48;100.00
59106;BME280;44891;50.204;8.132;2023-04-08T07:35:58;98837.22;;;7.43;100.00
59106;BME280;44891;50.204;8.132;2023-04-08T07:40:01;98836.41;;;7.62;100.00
59106;BME280;44891;50.204;8.132;2023-04-08T07:44:03;98794.81;;;7.54;100.00
59106;BME280;44891;50.204;8.132;2023-04-08T07:48:05;98827.75;;;7.69;100.00
59106;BME280;44891;50.204;8.132;2023-04-08T07:52:07;98833.38;;;7.66;100.00
59106;BME280;44891;50.204;8.132;2023-04-08T07:56:11;98840.41;;;7.72;100.00
59106;BME280;44891;50.204;8.132;2023-04-08T08:00:13;98849.69;;;7.68;100.00
59106;BME280;44891;50.204;8.132;2023-04-08T08:04:20;98852.66;;;7.78;100.00
59106;BME280;44891;50.204;8.132;2023-04-08T08:08:25;98851.28;;;7.62;100.00
59106;BME280;44891;50.204;8.132;2023-04-08T08:12:28;98849.47;;;7.76;100.00
59106;BME280;44891;50.204;8.132;2023-04-08T08:16:30;98853.66;;;7.90;99.36
59106;BME280;44891;50.204;8.132;2023-04-08T08:20:34;98854.41;;;8.04;98.81
59106;BME280;44891;50.204;8.132;2023-04-08T08:24:36;98859.28;;;7.94;97.53
59106;BME280;44891;50.204;8.132;2023-04-08T08:28:40;98853.25;;;7.86;98.59
59106;BME280;44891;50.204;8.132;2023-04-08T08:32:41;98863.06;;;7.98;97.95
59106;BME280;44891;50.204;8.132;2023-04-08T08:36:43;98869.09;;;7.98;97.95
59106;BME280;44891;50.204;8.132;2023-04-08T08:40:45;98873.53;;;7.98;97.16
59106;BME280;44891;50.204;8.132;2023-04-08T08:44:49;98880.03;;;7.82;98.64
59106;BME280;44891;50.204;8.132;2023-04-08T08:48:51;98882.03;;;7.93;97.93
59106;BME280;44891;50.204;8.132;2023-04-08T08:52:53;98885.03;;;7.90;98.34
59106;BME280;44891;50.204;8.132;2023-04-08T08:56:55;98889.25;;;7.84;98.07
59106;BME280;44891;50.204;8.132;2023-04-08T09:00:58;98888.88;;;7.74;98.33
59106;BME280;44891;50.204;8.132;2023-04-08T09:05:01;98897.31;;;7.70;98.29
59106;BME280;44891;50.204;8.132;2023-04-08T09:09:03;98899.53;;;7.79;97.97
59106;BME280;44891;50.204;8.132;2023-04-08T09:13:09;98912.78;;;7.78;97.51
59106;BME280;44891;50.204;8.132;2023-04-08T09:17:12;98907.78;;;7.76;97.89
59106;BME280;44891;50.204;8.132;2023-04-08T09:21:15;98905.16;;;7.83;98.45
59106;BME280;44891;50.204;8.132;2023-04-08T09:25:21;98912.41;;;7.87;97.97
59106;BME280;44891;50.204;8.132;2023-04-08T09:29:24;98912.97;;;7.96;97.46
59106;BME280;44891;50.204;8.132;2023-04-08T09:33:31;98911.94;;;8.10;96.61
59106;BME280;44891;50.204;8.132;2023-04-08T09:37:33;98906.94;;;8.09;97.15
59106;BME280;44891;50.204;8.132;2023-04-08T09:41:38;98918.38;;;8.14;96.92
59106;BME280;44891;50.204;8.132;2023-04-08T09:45:40;98913.53;;;8.11;97.72
59106;BME280;44891;50.204;8.132;2023-04-08T09:49:45;98912.34;;;8.21;98.45
59106;BME280;44891;50.204;8.132;2023-04-08T09:53:47;98923.59;;;8.41;97.57
59106;BME280;44891;50.204;8.132;2023-04-08T09:57:54;98920.91;;;8.61;96.53
59106;BME280;44891;50.204;8.132;2023-04-08T10:02:00;98930.69;;;8.79;95.24
59106;BME280;44891;50.204;8.132;2023-04-08T10:06:07;98927.66;;;8.82;93.92
59106;BME280;44891;50.204;8.132;2023-04-08T10:10:11;98926.78;;;8.94;91.90
59106;BME280;44891;50.204;8.132;2023-04-08T10:14:13;98921.59;;;9.19;89.69
59106;BME280;44891;50.204;8.132;2023-04-08T10:18:31;98922.97;;;9.22;89.04
59106;BME280;44891;50.204;8.132;2023-04-08T10:22:48;98925.19;;;9.25;87.76
59106;BME280;44891;50.204;8.132;2023-04-08T10:26:49;98921.34;;;9.27;89.13
59106;BME280;44891;50.204;8.132;2023-04-08T10:30:52;98916.09;;;9.27;88.45
59106;BME280;44891;50.204;8.132;2023-04-08T10:34:54;98910.09;;;9.20;86.71
59106;BME280;44891;50.204;8.132;2023-04-08T10:38:57;98920.66;;;9.07;85.11
59106;BME280;44891;50.204;8.132;2023-04-08T10:42:59;98914.00;;;9.11;84.00
59106;BME280;44891;50.204;8.132;2023-04-08T10:47:01;98919.06;;;9.06;83.84
59106;BME280;44891;50.204;8.132;2023-04-08T10:51:03;98909.13;;;9.15;81.54
59106;BME280;44891;50.204;8.132;2023-04-08T10:55:07;98914.31;;;9.21;79.63
59106;BME280;44891;50.204;8.132;2023-04-08T10:59:09;98918.31;;;9.24;79.06
59106;BME280;44891;50.204;8.132;2023-04-08T11:03:12;98916.56;;;9.18;81.61
59106;BME280;44891;50.204;8.132;2023-04-08T11:07:14;98912.59;;;9.40;79.75
59106;BME280;44891;50.204;8.132;2023-04-08T11:11:17;98919.66;;;9.65;79.64
59106;BME280;44891;50.204;8.132;2023-04-08T11:15:21;98920.28;;;9.85;78.31
59106;BME280;44891;50.204;8.132;2023-04-08T11:19:22;98913.88;;;9.81;75.79
59106;BME280;44891;50.204;8.132;2023-04-08T11:23:25;98918.03;;;9.89;74.10
59106;BME280;44891;50.204;8.132;2023-04-08T11:27:28;98913.97;;;9.93;75.03
59106;BME280;44891;50.204;8.132;2023-04-08T11:31:30;98916.63;;;10.11;76.25
59106;BME280;44891;50.204;8.132;2023-04-08T11:35:33;98922.56;;;10.25;75.00
59106;BME280;44891;50.204;8.132;2023-04-08T11:39:39;98919.50;;;10.28;71.81
59106;BME280;44891;50.204;8.132;2023-04-08T11:43:52;98916.63;;;10.29;69.31
59106;BME280;44891;50.204;8.132;2023-04-08T11:47:55;98914.47;;;10.63;69.07
59106;BME280;44891;50.204;8.132;2023-04-08T11:51:57;98902.41;;;11.04;67.65
59106;BME280;44891;50.204;8.132;2023-04-08T11:56:14;98905.41;;;11.84;64.83
59106;BME280;44891;50.204;8.132;2023-04-08T12:00:18;98902.25;;;12.34;62.24
59106;BME280;44891;50.204;8.132;2023-04-08T12:04:21;98898.63;;;12.35;61.25
59106;BME280;44891;50.204;8.132;2023-04-08T12:08:23;98894.84;;;12.19;61.74
59106;BME280;44891;50.204;8.132;2023-04-08T12:12:25;98898.31;;;11.96;62.34
59106;BME280;44891;50.204;8.132;2023-04-08T12:16:29;98908.03;;;11.84;62.99
59106;BME280;44891;50.204;8.132;2023-04-08T12:20:31;98898.84;;;11.63;61.84
59106;BME280;44891;50.204;8.132;2023-04-08T12:24:33;98897.28;;;11.97;61.76
59106;BME280;44891;50.204;8.132;2023-04-08T12:28:35;98892.03;;;11.97;62.64
59106;BME280;44891;50.204;8.132;2023-04-08T12:32:38;98902.41;;;11.57;64.76
59106;BME280;44891;50.204;8.132;2023-04-08T12:36:40;98902.72;;;11.49;64.96
59106;BME280;44891;50.204;8.132;2023-04-08T12:40:44;98890.91;;;11.40;66.48
59106;BME280;44891;50.204;8.132;2023-04-08T12:44:46;98896.66;;;11.37;67.21
59106;BME280;44891;50.204;8.132;2023-04-08T12:48:50;98890.47;;;11.55;67.26
59106;BME280;44891;50.204;8.132;2023-04-08T12:52:51;98893.09;;;11.55;67.87
59106;BME280;44891;50.204;8.132;2023-04-08T12:56:53;98885.34;;;11.60;67.03
59106;BME280;44891;50.204;8.132;2023-04-08T13:00:56;98894.41;;;11.22;69.03
59106;BME280;44891;50.204;8.132;2023-04-08T13:04:59;98893.19;;;11.25;68.63
59106;BME280;44891;50.204;8.132;2023-04-08T13:09:01;98899.03;;;11.38;67.32
59106;BME280;44891;50.204;8.132;2023-04-08T13:13:03;98902.91;;;11.24;68.43
59106;BME280;44891;50.204;8.132;2023-04-08T13:17:05;98902.41;;;11.04;68.91
59106;BME280;44891;50.204;8.132;2023-04-08T13:21:08;98904.09;;;10.98;69.15
59106;BME280;44891;50.204;8.132;2023-04-08T13:25:10;98901.59;;;11.15;68.49
59106;BME280;44891;50.204;8.132;2023-04-08T13:29:12;98903.44;;;11.14;68.25
59106;BME280;44891;50.204;8.132;2023-04-08T13:33:14;98897.31;;;10.91;69.03
59106;BME280;44891;50.204;8.132;2023-04-08T13:37:18;98893.34;;;11.00;69.24
59106;BME280;44891;50.204;8.132;2023-04-08T13:41:21;98893.00;;;10.96;68.53
59106;BME280;44891;50.204;8.132;2023-04-08T13:45:23;98903.91;;;10.81;71.24
59106;BME280;44891;50.204;8.132;2023-04-08T13:49:25;98895.44;;;10.79;70.34
59106;BME280;44891;50.204;8.132;2023-04-08T13:53:28;98897.16;;;11.15;70.86
59106;BME280;44891;50.204;8.132;2023-04-08T13:57:31;98899.81;;;11.27;69.97
59106;BME280;44891;50.204;8.132;2023-04-08T14:01:32;98902.56;;;11.32;69.83
59106;BME280;44891;50.204;8.132;2023-04-08T14:05:34;98908.53;;;11.39;68.94
59106;BME280;44891;50.204;8.132;2023-04-08T14:09:37;98910.72;;;11.42;69.18
59106;BME280;44891;50.204;8.132;2023-04-08T14:13:39;98899.88;;;11.51;69.13
59106;BME280;44891;50.204;8.132;2023-04-08T14:17:41;98905.50;;;11.12;69.09
59106;BME280;44891;50.204;8.132;2023-04-08T14:21:43;98912.53;;;10.70;70.81
59106;BME280;44891;50.204;8.132;2023-04-08T14:25:46;98909.06;;;10.58;72.30
59106;BME280;44891;50.204;8.132;2023-04-08T14:29:48;98914.53;;;10.38;73.85
59106;BME280;44891;50.204;8.132;2023-04-08T14:33:50;98915.84;;;10.29;75.55
59106;BME280;44891;50.204;8.132;2023-04-08T14:37:51;98907.00;;;10.23;74.87
59106;BME280;44891;50.204;8.132;2023-04-08T14:41:55;98903.50;;;10.29;75.75
59106;BME280;44891;50.204;8.132;2023-04-08T14:45:58;98901.09;;;10.28;75.39
59106;BME280;44891;50.204;8.132;2023-04-08T14:50:00;98908.63;;;10.24;77.13
59106;BME280;44891;50.204;8.132;2023-04-08T14:54:02;98899.28;;;10.47;76.99
59106;BME280;44891;50.204;8.132;2023-04-08T14:58:06;98899.09;;;10.78;76.34
59106;BME280;44891;50.204;8.132;2023-04-08T15:02:08;98904.78;;;10.75;74.95
59106;BME280;44891;50.204;8.132;2023-04-08T15:06:10;98908.00;;;10.77;74.56
59106;BME280;44891;50.204;8.132;2023-04-08T15:10:16;98911.16;;;10.49;75.96
59106;BME280;44891;50.204;8.132;2023-04-08T15:14:19;98905.81;;;10.74;75.33
59106;BME280;44891;50.204;8.132;2023-04-08T15:18:21;98904.31;;;10.97;74.77
59106;BME280;44891;50.204;8.132;2023-04-08T15:22:23;98917.50;;;10.78;74.37
59106;BME280;44891;50.204;8.132;2023-04-08T15:26:26;98918.31;;;10.60;75.80
59106;BME280;44891;50.204;8.132;2023-04-08T15:30:29;98909.31;;;10.68;75.71
59106;BME280;44891;50.204;8.132;2023-04-08T15:34:35;98905.59;;;10.76;75.90
59106;BME280;44891;50.204;8.132;2023-04-08T15:38:36;98900.88;;;10.66;75.24
59106;BME280;44891;50.204;8.132;2023-04-08T15:42:39;98906.13;;;10.66;76.00
59106;BME280;44891;50.204;8.132;2023-04-08T15:46:43;98908.44;;;10.56;75.62
59106;BME280;44891;50.204;8.132;2023-04-08T15:50:45;98911.69;;;10.58;75.76
59106;BME280;44891;50.204;8.132;2023-04-08T15:54:47;98913.69;;;10.74;75.33
59106;BME280;44891;50.204;8.132;2023-04-08T15:58:49;98919.09;;;10.79;76.07
59106;BME280;44891;50.204;8.132;2023-04-08T16:02:52;98915.44;;;10.80;75.54
59106;BME280;44891;50.204;8.132;2023-04-08T16:06:54;98913.53;;;10.69;75.93
59106;BME280;44891;50.204;8.132;2023-04-08T16:10:58;98919.31;;;10.78;76.43
59106;BME280;44891;50.204;8.132;2023-04-08T16:14:59;98929.75;;;10.66;76.97
59106;BME280;44891;50.204;8.132;2023-04-08T16:19:03;98933.28;;;10.42;76.59
59106;BME280;44891;50.204;8.132;2023-04-08T16:23:06;98936.91;;;10.41;76.69
59106;BME280;44891;50.204;8.132;2023-04-08T16:27:07;98931.50;;;10.35;77.75
59106;BME280;44891;50.204;8.132;2023-04-08T16:31:09;98933.34;;;10.35;77.05
59106;BME280;44891;50.204;8.132;2023-04-08T16:35:12;98931.97;;;10.32;77.41
59106;BME280;44891;50.204;8.132;2023-04-08T16:39:15;98946.13;;;10.31;78.88
59106;BME280;44891;50.204;8.132;2023-04-08T16:43:16;98944.28;;;10.32;77.95
59106;BME280;44891;50.204;8.132;2023-04-08T16:47:18;98947.72;;;10.32;78.22
59106;BME280;44891;50.204;8.132;2023-04-08T16:51:21;98950.56;;;10.31;76.80
59106;BME280;44891;50.204;8.132;2023-04-08T16:55:24;98942.69;;;10.31;78.15
59106;BME280;44891;50.204;8.132;2023-04-08T16:59:26;98950.19;;;10.27;77.28
59106;BME280;44891;50.204;8.132;2023-04-08T17:03:28;98957.50;;;10.25;78.01
59106;BME280;44891;50.204;8.132;2023-04-08T17:07:33;98954.88;;;10.25;78.01
59106;BME280;44891;50.204;8.132;2023-04-08T17:11:35;98962.97;;;10.24;78.47
59106;BME280;44891;50.204;8.132;2023-04-08T17:15:37;98959.34;;;10.18;78.28
59106;BME280;44891;50.204;8.132;2023-04-08T17:19:39;98959.13;;;10.20;78.15
59106;BME280;44891;50.204;8.132;2023-04-08T17:23:42;98962.03;;;10.12;78.40
59106;BME280;44891;50.204;8.132;2023-04-08T17:27:44;98964.84;;;10.10;79.15
59106;BME280;44891;50.204;8.132;2023-04-08T17:31:46;98967.69;;;10.08;79.28
59106;BME280;44891;50.204;8.132;2023-04-08T17:35:48;98964.84;;;9.92;80.51
59106;BME280;44891;50.204;8.132;2023-04-08T17:39:52;98964.63;;;9.93;81.15
59106;BME280;44891;50.204;8.132;2023-04-08T17:43:54;98969.06;;;9.93;81.02
59106;BME280;44891;50.204;8.132;2023-04-08T17:47:56;98980.41;;;9.87;81.46
59106;BME280;44891;50.204;8.132;2023-04-08T17:51:58;98976.34;;;9.91;81.37
59106;BME280;44891;50.204;8.132;2023-04-08T17:56:02;98977.63;;;9.81;82.29
59106;BME280;44891;50.204;8.132;2023-04-08T18:00:05;98983.31;;;9.78;82.31
59106;BME280;44891;50.204;8.132;2023-04-08T18:04:08;98993.59;;;9.80;82.61
59106;BME280;44891;50.204;8.132;2023-04-08T18:08:11;98991.75;;;9.80;83.50
59106;BME280;44891;50.204;8.132;2023-04-08T18:12:15;98991.00;;;9.73;83.20
59106;BME280;44891;50.204;8.132;2023-04-08T18:16:18;98988.78;;;9.70;84.10
59106;BME280;44891;50.204;8.132;2023-04-08T18:20:20;98993.91;;;9.65;84.64
59106;BME280;44891;50.204;8.132;2023-04-08T18:24:22;98991.47;;;9.64;84.79
59106;BME280;44891;50.204;8.132;2023-04-08T18:28:26;99002.41;;;9.61;85.92
59106;BME280;44891;50.204;8.132;2023-04-08T18:32:27;99007.69;;;9.54;86.48
59106;BME280;44891;50.204;8.132;2023-04-08T18:36:29;99011.69;;;9.57;88.12
59106;BME280;44891;50.204;8.132;2023-04-08T18:40:31;99016.16;;;9.49;87.61
59106;BME280;44891;50.204;8.132;2023-04-08T18:44:35;99015.03;;;9.39;88.38
59106;BME280;44891;50.204;8.132;2023-04-08T18:48:38;99012.41;;;9.39;89.04
59106;BME280;44891;50.204;8.132;2023-04-08T18:52:40;99019.63;;;9.43;89.18
59106;BME280;44891;50.204;8.132;2023-04-08T18:56:42;99018.06;;;9.36;89.44
59106;BME280;44891;50.204;8.132;2023-04-08T19:00:45;99024.50;;;9.40;88.12
59106;BME280;44891;50.204;8.132;2023-04-08T19:04:47;99024.50;;;9.40;86.94
59106;BME280;44891;50.204;8.132;2023-04-08T19:08:49;99028.78;;;9.34;86.14
59106;BME280;44891;50.204;8.132;2023-04-08T19:12:51;99032.41;;;9.33;84.59
59106;BME280;44891;50.204;8.132;2023-04-08T19:16:54;99030.16;;;9.37;84.28
59106;BME280;44891;50.204;8.132;2023-04-08T19:20:55;99025.97;;;9.29;85.17
59106;BME280;44891;50.204;8.132;2023-04-08T19:24:57;99034.66;;;9.23;87.01
59106;BME280;44891;50.204;8.132;2023-04-08T19:29:00;99038.50;;;9.20;88.32
59106;BME280;44891;50.204;8.132;2023-04-08T19:33:03;99035.31;;;9.18;89.12
59106;BME280;44891;50.204;8.132;2023-04-08T19:37:05;99042.19;;;9.13;90.26
59106;BME280;44891;50.204;8.132;2023-04-08T19:41:08;99041.19;;;9.07;88.59
59106;BME280;44891;50.204;8.132;2023-04-08T19:45:10;99040.97;;;9.09;86.71
59106;BME280;44891;50.204;8.132;2023-04-08T19:49:13;99045.06;;;8.98;84.99
59106;BME280;44891;50.204;8.132;2023-04-08T19:53:15;99047.28;;;8.94;82.61
59106;BME280;44891;50.204;8.132;2023-04-08T19:57:17;99050.72;;;8.95;79.77
59106;BME280;44891;50.204;8.132;2023-04-08T20:01:19;99058.19;;;8.91;79.04
59106;BME280;44891;50.204;8.132;2023-04-08T20:05:23;99055.78;;;8.83;79.63
59106;BME280;44891;50.204;8.132;2023-04-08T20:09:25;99057.59;;;8.83;78.46
59106;BME280;44891;50.204;8.132;2023-04-08T20:13:27;99062.03;;;8.82;77.97
59106;BME280;44891;50.204;8.132;2023-04-08T20:17:29;99061.41;;;8.87;78.24
59106;BME280;44891;50.204;8.132;2023-04-08T20:21:32;99057.19;;;8.86;77.79
59106;BME280;44891;50.204;8.132;2023-04-08T20:25:34;99066.47;;;8.82;76.94
59106;BME280;44891;50.204;8.132;2023-04-08T20:29:36;99071.69;;;8.82;76.71
59106;BME280;44891;50.204;8.132;2023-04-08T20:33:38;99069.50;;;8.79;76.93
59106;BME280;44891;50.204;8.132;2023-04-08T20:37:45;99062.25;;;8.74;76.99
59106;BME280;44891;50.204;8.132;2023-04-08T20:41:47;99062.47;;;8.73;76.44
59106;BME280;44891;50.204;8.132;2023-04-08T20:45:49;99067.28;;;8.69;76.37
59106;BME280;44891;50.204;8.132;2023-04-08T20:49:51;99064.09;;;8.67;73.75
59106;BME280;44891;50.204;8.132;2023-04-08T20:53:54;99068.91;;;8.70;74.18
59106;BME280;44891;50.204;8.132;2023-04-08T20:57:56;99063.25;;;8.73;73.89
59106;BME280;44891;50.204;8.132;2023-04-08T21:02:00;99066.06;;;8.65;72.40
59106;BME280;44891;50.204;8.132;2023-04-08T21:06:01;99066.50;;;8.68;73.75
59106;BME280;44891;50.204;8.132;2023-04-08T21:10:05;99069.72;;;8.64;72.94
59106;BME280;44891;50.204;8.132;2023-04-08T21:14:07;99061.84;;;8.64;73.41
59106;BME280;44891;50.204;8.132;2023-04-08T21:18:09;99067.31;;;8.56;73.92
59106;BME280;44891;50.204;8.132;2023-04-08T21:22:11;99066.50;;;8.55;73.88
59106;BME280;44891;50.204;8.132;2023-04-08T21:26:14;99068.13;;;8.56;74.00
59106;BME280;44891;50.204;8.132;2023-04-08T21:30:16;99067.31;;;8.56;74.32
59106;BME280;44891;50.204;8.132;2023-04-08T21:34:18;99073.94;;;8.52;74.78